Fredonia, New York
Current Conditions -  °F | °C
As of 3:53 PM on Saturday 25 Oct 2014 (Local Time) from KDKK Reporting Station
Light Rain Light Rain  
Wind Chill: 58°   Ceiling: 1100
Heat Index: 58°   Visibility: 5mi
Dew Point: 53°   Wind: 16mph
Humidity: 84%   Direction: 240°WSW
Pressure: 29.67"   Gusts: 35mph
Location:  42.44°N, 79.33°W
Report Text: KDKK 251953Z AUTO 24014G30KT 5SM -RA OVC011 14/12 A2967 RMK AO2 PK WND 24030/1946 RAB48 SLP048 P0000 T01440117
Loading
Personal Weather Stations






























Interactive Weather Map
Tropical Storm Tracking
New forecast layout! Learn more

10-Day Weather Forecast

Advertisements
Track Severe Weather on mobile